Aeroporto :
LOGIN :

Iscrizione | Disclaimer

   EN    FR    IT 

 










Sommario :    VFR   VFR Marginale   IFR   IFR Intensivo   IFR Molto Intensivo
Visibilità : 
Base nubi : 
>= 8 km
>= 3000ft
5 / 8 km
1000 / 3000 ft
1500m / 5 km
500 / 1000 ft
800 / 1500m
200 / 500 ft
< 800m
< 200 ft
Simboli :   Temporali  Nebbia  Neve Forte  Precipitazioni Forti  Vento > 20 kt
SIGMETs :   Varie  Temporali  Ghiacco  Turbolenza  Onda orograficha  Ceneri Vulcaniche






- Altitudine del aeroporto : 885 ft
- Codice IATA : BAS


LFSB - Bale-Mulhouse

ULTIMO METAR :
  • 071930Z 27002KT 9999 FEW023 BKN055 06/05 Q1021 NOSIG

METARs OBSOLETI :
  • 071900Z 28002KT 9999 FEW023 BKN060 07/05 Q1021 NOSIG
  • 071830Z 00000KT 9999 FEW023 BKN060 07/05 Q1021 NOSIG
  • 071800Z 17002KT 9999 SCT023 BKN056 08/05 Q1021 NOSIG
  • 071730Z 15003KT 9999 BKN023 BKN053 08/05 Q1021 NOSIG
  • 071700Z VRB02KT 9999 BKN023 BKN053 08/05 Q1020 NOSIG

TAF TAF LFSB
Valido dal 07 a 18 ore il 08 a 18 ore UTC


071700Z 0718/0818 17005KT 9999 BKN025
BECMG 0810/0812 24010G20KT
TEMPO 0816/0818 RA
Met : +33 3 89 90 31 11



MetMap, La meteo Aeronautica in un colpo d'occhio ! - Copyright ORBIFLY Dicembre 2007 - Disclaimer

ORBIFLY MET'MAP TEAM :

Programmazione e sviluppo : Alexandra Zaïnal
Concezione : Baudouin d'Aumeries
Aiuto per la programmazione : Marc-Olivier Méhu
Supporto tecnico e logistico : Manuel Goepfert
Aiuto per la traduzione : Arnaldo La Scala

Contatto : metmap@orbifly.com




FONTI E CREDITI :

   NOAA